Time;durP1;ratioP1;P1;durP2;ratioP2;P2;SDS_P1;SDS_P2;PMS_P1;PMS_P2;Temp;Humidity;BMP_temperature;BMP_pressure;BME280_temperature;BME280_humidity;BME280_pressure;Samples;Min_cycle;Max_cycle;Signal;HPM_P1;HPM_P2
2023/03/28 00:00:32;;;;;;;8.18;3.20;;;;;;;3.12;71.59;97843.31;4487319;31;20091;-77
2023/03/28 00:02:59;;;;;;;6.03;2.55;;;;;;;3.26;70.78;97847.31;4487300;31;20115;-78
2023/03/28 00:05:26;;;;;;;8.55;3.00;;;;;;;3.09;71.51;97843.37;4486846;31;20379;-78
2023/03/28 00:07:55;;;;;;;5.07;2.30;;;;;;;3.40;70.23;97848.78;4487233;31;20487;-77
2023/03/28 00:10:22;;;;;;;11.60;2.87;;;;;;;3.28;70.98;97864.28;4487302;31;20092;-77
2023/03/28 00:12:49;;;;;;;8.75;2.70;;;;;;;3.43;70.82;97856.38;4486801;31;20093;-77
2023/03/28 00:15:16;;;;;;;7.32;2.37;;;;;;;3.11;71.27;97856.91;4486207;31;20102;-77
2023/03/28 00:17:43;;;;;;;9.77;2.83;;;;;;;3.06;72.73;97857.84;4486716;31;20153;-78
2023/03/28 00:20:12;;;;;;;7.32;2.50;;;;;;;3.31;71.44;97871.06;4486800;31;20088;-77
2023/03/28 00:22:39;;;;;;;11.00;2.92;;;;;;;3.28;70.76;97876.19;4487084;31;20153;-78
2023/03/28 00:25:07;;;;;;;7.30;2.58;;;;;;;3.03;73.13;97868.94;4486820;31;20088;-78
2023/03/28 00:27:35;;;;;;;7.53;2.40;;;;;;;3.63;69.40;97868.78;4486703;31;20651;-78
2023/03/28 00:30:04;;;;;;;7.82;2.75;;;;;;;3.12;71.42;97879.00;4487078;31;20153;-78
2023/03/28 00:32:31;;;;;;;8.50;2.60;;;;;;;3.32;70.72;97878.69;4485504;32;20157;-77
2023/03/28 00:34:58;;;;;;;8.98;3.00;;;;;;;3.39;70.66;97872.59;4486789;32;20088;-78
2023/03/28 00:37:24;;;;;;;9.10;2.70;;;;;;;2.99;72.43;97871.56;4486849;31;20149;-78
2023/03/28 00:39:52;;;;;;;7.90;2.90;;;;;;;3.23;72.17;97877.97;4486516;31;20525;-78
2023/03/28 00:42:21;;;;;;;6.93;2.67;;;;;;;3.59;69.86;97879.06;4486785;31;20144;-78
2023/03/28 00:44:50;;;;;;;9.48;2.92;;;;;;;3.11;71.93;97864.56;4485383;32;20107;-77
2023/03/28 00:47:40;;;;;;;9.77;2.67;;;;;;;3.49;69.65;97873.28;4486318;32;20088;-77
2023/03/28 00:50:19;;;;;;;7.47;2.50;;;;;;;3.35;70.42;97876.06;4486752;31;20156;-78
2023/03/28 00:53:09;;;;;;;7.85;2.50;;;;;;;3.59;69.72;97873.94;4486730;31;20442;-78
2023/03/28 00:55:43;;;;;;;8.23;2.47;;;;;;;3.13;72.01;97877.28;4485169;32;20141;-77
2023/03/28 00:58:14;;;;;;;7.72;2.60;;;;;;;3.22;71.37;97866.94;4486622;31;20072;-77
2023/03/28 01:00:41;;;;;;;8.05;2.75;;;;;;;3.05;71.35;97885.03;4486344;31;20092;-77
2023/03/28 01:03:12;;;;;;;6.40;2.37;;;;;;;3.17;71.29;97889.94;4485288;32;20108;-78
2023/03/28 01:05:40;;;;;;;8.55;2.53;;;;;;;2.97;72.76;97896.22;4486163;31;20088;-78
2023/03/28 01:08:28;;;;;;;8.02;2.75;;;;;;;2.89;73.97;97891.25;4484890;32;20076;-78
2023/03/28 01:10:55;;;;;;;9.35;3.15;;;;;;;3.37;71.62;97889.63;4485182;32;20475;-78
2023/03/28 01:13:28;;;;;;;6.45;2.22;;;;;;;3.07;72.95;97883.31;4485248;32;20173;-78
2023/03/28 01:15:55;;;;;;;9.07;2.78;;;;;;;3.21;72.29;97887.38;4485820;31;20438;-78
2023/03/28 01:18:22;;;;;;;8.05;2.65;;;;;;;3.57;70.96;97896.94;4485121;32;20076;-78
2023/03/28 01:21:05;;;;;;;7.35;2.53;;;;;;;3.08;72.84;97889.25;4485109;32;20127;-78
2023/03/28 01:23:50;;;;;;;6.65;2.72;;;;;;;3.30;71.35;97903.38;4485820;31;20100;-78
2023/03/28 01:26:54;;;;;;;7.05;2.30;;;;;;;3.65;70.57;97915.53;4486115;32;20089;-78
2023/03/28 01:29:39;;;;;;;7.47;2.50;;;;;;;3.40;71.83;97911.69;4488057;31;20068;-78
2023/03/28 01:32:42;;;;;;;7.25;2.50;;;;;;;4.05;69.29;97909.72;4488424;32;20409;-78
2023/03/28 01:35:28;;;;;;;8.38;2.78;;;;;;;3.46;70.26;97914.97;4488361;32;20107;-78
2023/03/28 01:38:22;;;;;;;7.18;2.37;;;;;;;3.91;69.12;97907.38;4486950;32;20084;-78
2023/03/28 01:40:53;;;;;;;7.82;2.70;;;;;;;3.72;69.55;97921.34;4487268;32;20080;-78
2023/03/28 01:43:47;;;;;;;9.93;3.00;;;;;;;3.44;71.38;97926.94;4488015;31;20088;-78
2023/03/28 01:46:29;;;;;;;7.47;2.62;;;;;;;3.71;70.52;97929.88;4488126;32;20092;-78
2023/03/28 01:49:06;;;;;;;8.45;2.78;;;;;;;3.12;71.93;97924.88;4488344;31;20076;-78
2023/03/28 01:52:10;;;;;;;8.43;2.67;;;;;;;3.04;72.71;97928.41;4488043;31;20133;-78
2023/03/28 01:54:45;;;;;;;7.35;2.40;;;;;;;3.63;71.12;97931.72;4488196;32;20460;-78
2023/03/28 01:57:31;;;;;;;6.68;2.42;;;;;;;3.10;71.57;97921.50;4488137;31;20153;-78
2023/03/28 02:00:14;;;;;;;5.37;2.00;;;;;;;3.96;68.58;97943.06;4487202;32;20118;-78
2023/03/28 02:02:48;;;;;;;10.05;2.87;;;;;;;3.40;70.39;97937.19;4488292;31;20068;-78
2023/03/28 02:05:18;;;;;;;10.35;2.50;;;;;;;3.20;71.86;97955.38;4473782;32;20379;-78
2023/03/28 02:07:45;;;;;;;6.60;2.10;;;;;;;3.30;71.36;97950.97;4486875;32;20145;-78
2023/03/28 02:10:15;;;;;;;7.10;2.00;;;;;;;3.17;72.10;97952.84;4486903;32;20145;-78
2023/03/28 02:12:58;;;;;;;6.62;2.30;;;;;;;3.51;70.03;97952.31;4487852;31;20103;-78
2023/03/28 02:15:26;;;;;;;6.97;2.22;;;;;;;3.35;70.90;97962.78;4487021;32;20096;-78
2023/03/28 02:17:56;;;;;;;7.90;3.00;;;;;;;3.60;69.14;97970.88;4487767;31;20122;-78
2023/03/28 02:20:27;;;;;;;6.85;2.42;;;;;;;3.63;68.52;97965.75;4488170;32;20759;-78
2023/03/28 02:23:01;;;;;;;4.80;2.00;;;;;;;3.00;71.23;97975.19;4486947;32;20137;-78
2023/03/28 02:25:30;;;;;;;6.28;2.15;;;;;;;2.82;72.38;97966.94;4487561;31;20105;-78
2023/03/28 02:28:00;;;;;;;6.30;2.30;;;;;;;3.03;72.57;97977.69;4486870;32;20115;-78
2023/03/28 02:30:27;;;;;;;5.32;1.87;;;;;;;3.94;68.31;97975.44;4486852;32;20102;-78
2023/03/28 02:32:59;;;;;;;5.75;1.85;;;;;;;3.27;70.27;97976.50;4487670;31;20153;-78
2023/03/28 02:35:39;;;;;;;7.75;2.33;;;;;;;3.70;69.19;97974.13;4487763;31;20428;-78
2023/03/28 02:38:21;;;;;;;6.55;2.35;;;;;;;2.98;71.83;97985.41;4486570;32;20104;-78
2023/03/28 02:40:58;;;;;;;6.25;2.25;;;;;;;3.39;70.26;97984.81;4487377;31;20088;-78
2023/03/28 02:43:31;;;;;;;5.20;2.10;;;;;;;3.66;68.66;97991.19;4486824;32;20088;-78
2023/03/28 02:46:30;;;;;;;6.65;2.20;;;;;;;3.82;67.71;97996.03;4486394;32;20096;-78
2023/03/28 02:49:21;;;;;;;7.55;2.33;;;;;;;3.33;69.04;97997.66;4461159;31;20111;-78
2023/03/28 02:52:13;;;;;;;7.75;1.92;;;;;;;3.36;69.58;97997.59;4486743;32;20079;-78
2023/03/28 02:55:04;;;;;;;5.75;2.05;;;;;;;3.66;68.19;98000.56;4487613;31;20599;-78
2023/03/28 02:57:45;;;;;;;6.32;2.25;;;;;;;4.00;66.65;98009.34;4486675;32;20097;-78
2023/03/28 03:00:15;;;;;;;6.95;2.30;;;;;;;3.53;67.96;98015.22;4487593;31;20088;-78
2023/03/28 03:02:44;;;;;;;7.55;2.22;;;;;;;3.86;66.76;98015.56;4486684;32;20438;-79
2023/03/28 03:05:12;;;;;;;6.78;2.10;;;;;;;4.16;66.11;98024.41;4486355;32;20144;-78
2023/03/28 03:07:40;;;;;;;4.75;1.80;;;;;;;3.67;67.27;98020.94;4486911;31;20538;-78
2023/03/28 03:10:10;;;;;;;5.97;1.90;;;;;;;4.29;64.60;98020.75;4487828;31;20111;-78
2023/03/28 03:12:37;;;;;;;5.37;1.77;;;;;;;3.98;65.73;98030.66;4487754;31;20448;-78
2023/03/28 03:15:06;;;;;;;5.93;1.92;;;;;;;4.13;64.93;98022.72;4487397;31;20107;-78
2023/03/28 03:17:32;;;;;;;3.72;1.50;;;;;;;3.82;66.00;98024.12;4487712;31;20100;-78
2023/03/28 03:20:05;;;;;;;6.10;1.87;;;;;;;4.01;64.90;98023.78;4487716;31;20096;-79
2023/03/28 03:22:33;;;;;;;5.25;2.12;;;;;;;3.46;67.63;98031.47;4487325;31;20426;-78
2023/03/28 03:25:06;;;;;;;5.65;2.33;;;;;;;2.90;70.10;98023.75;4487466;31;20080;-78
2023/03/28 03:27:35;;;;;;;5.07;1.80;;;;;;;3.23;68.54;98023.31;4487550;31;20370;-78
2023/03/28 03:30:03;;;;;;;5.22;2.15;;;;;;;3.37;68.07;98034.16;4487392;31;20084;-78
2023/03/28 03:32:32;;;;;;;5.87;2.30;;;;;;;3.52;68.01;98035.66;4486389;32;20502;-78
2023/03/28 03:34:59;;;;;;;4.97;2.03;;;;;;;3.27;68.13;98032.59;4487122;31;20140;-78
2023/03/28 03:37:26;;;;;;;6.18;2.20;;;;;;;3.06;68.60;98047.31;4487526;31;20100;-78
2023/03/28 03:39:53;;;;;;;6.12;2.20;;;;;;;3.48;67.80;98042.50;4487531;32;20107;-78
2023/03/28 03:42:20;;;;;;;5.53;2.08;;;;;;;3.24;68.63;98050.50;4487211;31;20093;-78
2023/03/28 03:44:47;;;;;;;8.77;2.40;;;;;;;3.21;69.28;98046.28;4487328;31;20096;-78
2023/03/28 03:47:16;;;;;;;5.32;2.10;;;;;;;2.81;70.74;98051.03;4487456;31;20093;-78
2023/03/28 03:49:43;;;;;;;5.15;1.80;;;;;;;2.78;71.70;98053.62;4486794;32;20458;-78
2023/03/28 03:52:10;;;;;;;5.43;1.95;;;;;;;3.55;68.52;98063.66;4487400;32;20151;-78
2023/03/28 03:54:37;;;;;;;6.87;2.03;;;;;;;3.17;68.81;98063.31;4487388;31;20080;-78
2023/03/28 03:57:04;;;;;;;6.10;2.35;;;;;;;2.79;69.63;98060.41;4486902;31;20104;-78
2023/03/28 03:59:31;;;;;;;6.62;2.10;;;;;;;2.94;70.30;98064.47;4487421;31;20100;-78
2023/03/28 04:01:58;;;;;;;5.78;2.25;;;;;;;2.89;69.38;98060.28;4487324;31;20471;-78
2023/03/28 04:04:26;;;;;;;5.47;2.05;;;;;;;3.18;68.90;98074.34;4486820;31;20491;-78
2023/03/28 04:06:56;;;;;;;6.00;2.10;;;;;;;3.10;68.61;98068.53;4486894;31;20114;-79
2023/03/28 04:09:27;;;;;;;7.25;2.17;;;;;;;3.42;68.37;98068.09;4487258;31;20096;-78
2023/03/28 04:11:54;;;;;;;4.57;1.80;;;;;;;3.44;67.79;98071.47;4486896;31;20084;-78
2023/03/28 04:14:21;;;;;;;4.43;1.92;;;;;;;3.63;66.66;98069.50;4487187;31;20107;-78
2023/03/28 04:16:49;;;;;;;5.47;1.83;;;;;;;3.67;66.62;98079.63;4487008;31;20108;-78
2023/03/28 04:19:17;;;;;;;7.25;2.47;;;;;;;2.98;68.57;98082.28;4486669;31;20088;-78
2023/03/28 04:21:47;;;;;;;4.45;1.90;;;;;;;2.94;70.50;98095.06;4487164;31;20076;-78
2023/03/28 04:24:15;;;;;;;5.25;1.90;;;;;;;3.08;69.01;98088.91;4485528;32;20533;-78
2023/03/28 04:26:42;;;;;;;6.65;2.00;;;;;;;3.34;68.45;98086.06;4486947;31;20487;-78
2023/03/28 04:29:09;;;;;;;4.72;1.95;;;;;;;3.43;68.04;98090.19;4487040;31;20103;-78
2023/03/28 04:31:38;;;;;;;5.28;1.67;;;;;;;3.41;67.88;98092.78;4486713;31;20084;-78
2023/03/28 04:34:06;;;;;;;7.32;2.20;;;;;;;3.03;69.51;98094.94;4485818;32;20072;-78
2023/03/28 04:36:32;;;;;;;7.45;2.12;;;;;;;3.86;65.62;98100.63;4486920;32;20100;-78
2023/03/28 04:39:01;;;;;;;5.60;2.10;;;;;;;3.09;67.91;98103.37;4486412;31;20080;-78
2023/03/28 04:41:30;;;;;;;3.92;1.60;;;;;;;3.40;67.29;98111.50;4486912;31;20164;-78
2023/03/28 04:43:57;;;;;;;5.95;1.98;;;;;;;3.64;65.42;98114.56;4486837;31;20076;-78
2023/03/28 04:46:24;;;;;;;5.25;1.98;;;;;;;3.44;66.87;98123.31;4486230;31;20157;-78
2023/03/28 04:48:51;;;;;;;4.80;1.90;;;;;;;3.86;64.63;98121.03;4486714;31;20097;-78
2023/03/28 04:51:23;;;;;;;5.43;2.00;;;;;;;3.19;68.17;98125.34;4486763;32;20506;-79
2023/03/28 04:53:50;;;;;;;7.15;1.92;;;;;;;3.70;65.53;98122.12;4486229;31;20120;-79
2023/03/28 04:56:17;;;;;;;7.47;2.55;;;;;;;3.77;64.76;98126.28;4486545;31;20104;-78
2023/03/28 04:58:44;;;;;;;5.28;1.92;;;;;;;3.79;64.78;98132.19;4486448;31;20152;-79
2023/03/28 05:01:12;;;;;;;5.60;1.95;;;;;;;4.03;64.69;98130.97;4486374;31;20084;-78
2023/03/28 05:03:39;;;;;;;5.05;1.90;;;;;;;3.46;66.42;98129.25;4488295;31;20077;-78
2023/03/28 05:06:07;;;;;;;6.90;2.12;;;;;;;3.19;67.73;98124.50;4487840;31;20105;-78
2023/03/28 05:08:34;;;;;;;5.87;2.22;;;;;;;3.44;67.39;98127.59;4488601;31;20092;-78
2023/03/28 05:11:01;;;;;;;4.12;2.10;;;;;;;3.59;67.04;98124.81;4488676;31;20102;-78
2023/03/28 05:13:28;;;;;;;5.43;1.98;;;;;;;3.55;66.70;98142.75;4488274;31;20173;-78
2023/03/28 05:15:55;;;;;;;8.43;2.35;;;;;;;4.18;65.10;98143.53;4488501;31;20093;-78
2023/03/28 05:18:22;;;;;;;4.97;1.80;;;;;;;4.07;64.97;98127.53;4488547;31;20097;-78
2023/03/28 05:20:49;;;;;;;5.35;1.83;;;;;;;4.35;64.35;98151.75;4488150;31;20096;-78
2023/03/28 05:23:16;;;;;;;5.62;1.90;;;;;;;4.05;64.23;98140.34;4488514;31;20085;-79
2023/03/28 05:25:43;;;;;;;4.57;2.00;;;;;;;3.73;66.89;98152.72;4488314;31;20085;-78
2023/03/28 05:28:10;;;;;;;5.85;1.98;;;;;;;4.36;64.40;98155.19;4488033;31;20109;-78
2023/03/28 05:30:37;;;;;;;5.62;1.90;;;;;;;4.04;64.53;98166.72;4488457;31;20099;-78
2023/03/28 05:33:03;;;;;;;5.05;2.03;;;;;;;4.25;64.11;98151.91;4488462;31;20081;-78
2023/03/28 05:35:30;;;;;;;3.87;1.58;;;;;;;3.95;65.30;98161.75;4487942;31;20100;-78
2023/03/28 05:37:57;;;;;;;4.32;1.62;;;;;;;5.03;61.45;98176.16;4488427;31;20435;-78
2023/03/28 05:40:25;;;;;;;5.50;1.75;;;;;;;4.99;60.62;98170.25;4488390;31;20080;-78
2023/03/28 05:42:52;;;;;;;6.00;1.95;;;;;;;4.88;60.34;98180.66;4487963;31;20560;-78
2023/03/28 05:45:19;;;;;;;3.47;1.30;;;;;;;4.78;60.37;98178.28;4488170;31;20096;-78
2023/03/28 05:47:46;;;;;;;4.40;1.50;;;;;;;5.87;57.34;98179.59;4488392;31;20092;-78
2023/03/28 05:50:13;;;;;;;3.70;1.27;;;;;;;6.02;55.69;98181.81;4486822;32;20167;-78
2023/03/28 05:52:40;;;;;;;3.05;1.37;;;;;;;5.66;55.93;98180.88;4488240;31;20073;-78
2023/03/28 05:55:07;;;;;;;;;;;;;;;6.49;53.87;98180.75;4488326;31;20105;-78
2023/03/28 05:57:34;;;;;;;5.18;1.58;;;;;;;6.41;53.77;98177.50;4488308;31;20040;-78
2023/03/28 06:00:03;;;;;;;3.40;1.50;;;;;;;7.04;51.78;98187.03;4488358;32;20085;-78
2023/03/28 06:02:32;;;;;;;4.68;1.40;;;;;;;7.27;51.53;98188.13;4487849;32;20081;-78
2023/03/28 06:04:59;;;;;;;3.50;1.45;;;;;;;7.40;50.22;98187.75;4488016;31;20092;-78
2023/03/28 06:07:27;;;;;;;3.60;1.45;;;;;;;7.81;49.32;98188.31;4486627;31;20104;-78
2023/03/28 06:10:10;;;;;;;3.87;1.20;;;;;;;7.21;50.28;98186.56;4486781;32;20103;-78
2023/03/28 06:12:37;;;;;;;3.78;1.50;;;;;;;7.07;50.45;98196.38;4486859;32;20098;-78
2023/03/28 06:15:04;;;;;;;5.00;1.58;;;;;;;7.52;49.10;98189.13;4488056;31;20443;-79
2023/03/28 06:17:31;;;;;;;4.18;1.42;;;;;;;7.48;49.06;98193.53;4487653;31;20089;-78
2023/03/28 06:19:58;;;;;;;6.10;2.12;;;;;;;8.01;48.67;98198.00;4488051;31;20127;-78
2023/03/28 06:22:26;;;;;;;5.43;1.58;;;;;;;8.67;46.36;98196.78;4488087;31;20088;-77
2023/03/28 06:24:52;;;;;;;5.05;1.50;;;;;;;9.30;45.39;98192.94;4487595;31;20476;-76
2023/03/28 06:27:19;;;;;;;2.55;1.12;;;;;;;9.24;44.92;98206.00;4487717;31;20100;-81
2023/03/28 06:29:46;;;;;;;2.87;1.20;;;;;;;9.10;45.45;98198.78;4487937;31;20140;-79
2023/03/28 06:32:14;;;;;;;2.15;1.10;;;;;;;7.83;47.65;98196.78;4486509;32;20144;-85
2023/03/28 06:34:41;;;;;;;5.10;1.60;;;;;;;7.34;48.94;98210.19;4487926;31;20096;-83
2023/03/28 06:37:08;;;;;;;4.78;1.58;;;;;;;7.97;47.75;98210.06;4488049;31;20138;-82
2023/03/28 06:39:35;;;;;;;4.90;1.40;;;;;;;7.42;47.80;98205.69;4487673;31;20160;-81
2023/03/28 06:42:04;;;;;;;2.45;1.25;;;;;;;7.81;47.13;98199.41;4486838;32;20590;-80
2023/03/28 06:44:31;;;;;;;3.35;1.33;;;;;;;6.59;49.24;98196.72;4487396;31;20104;-84
2023/03/28 06:46:58;;;;;;;4.10;1.50;;;;;;;8.45;47.15;98211.22;4487715;31;20122;-83
2023/03/28 06:49:25;;;;;;;4.25;1.48;;;;;;;8.82;45.26;98206.56;4486555;32;20106;-84
2023/03/28 06:51:52;;;;;;;3.90;1.48;;;;;;;7.82;46.98;98205.41;4487568;32;20095;-83
2023/03/28 06:54:19;;;;;;;4.25;1.55;;;;;;;8.43;46.28;98216.44;4487724;31;20096;-83
2023/03/28 06:56:46;;;;;;;4.70;1.48;;;;;;;9.06;43.39;98192.06;4487623;32;20104;-84
2023/03/28 06:59:13;;;;;;;3.80;1.60;;;;;;;8.55;45.28;98210.06;4487379;31;20088;-83
2023/03/28 07:01:40;;;;;;;;;;;;;;;8.70;44.49;98201.81;4488119;31;20149;-84
2023/03/28 07:04:07;;;;;;;1.95;1.30;;;;;;;8.17;44.64;98206.91;4487831;31;19990;-84
2023/03/28 07:06:34;;;;;;;3.78;1.40;;;;;;;7.22;45.87;98194.22;4486955;31;20100;-83
2023/03/28 07:09:01;;;;;;;3.83;1.45;;;;;;;6.82;47.91;98203.84;4487562;31;20091;-83
2023/03/28 07:11:31;;;;;;;6.45;1.60;;;;;;;6.85;46.84;98198.66;4487691;31;20438;-82
2023/03/28 07:13:58;;;;;;;6.03;1.67;;;;;;;6.60;47.62;98183.03;4487357;31;20128;-84
2023/03/28 07:16:25;;;;;;;;;;;;;;;6.58;49.10;98216.38;4487894;31;20104;-83
2023/03/28 07:18:52;;;;;;;5.80;1.62;;;;;;;7.10;48.39;98222.78;4487643;31;19968;-84
2023/03/28 07:21:19;;;;;;;;;;;;;;;7.74;46.41;98223.59;4487616;31;20122;-83
2023/03/28 07:23:46;;;;;;;4.80;1.45;;;;;;;8.45;45.50;98232.66;4487701;31;20045;-84
2023/03/28 07:26:14;;;;;;;3.00;1.10;;;;;;;7.67;42.97;98204.13;4486772;31;20084;-83
2023/03/28 07:28:41;;;;;;;6.00;1.50;;;;;;;7.97;45.51;98232.34;4487154;31;20092;-84
2023/03/28 07:31:08;;;;;;;4.97;1.20;;;;;;;8.84;43.52;98227.13;4487573;31;20141;-83
2023/03/28 07:33:36;;;;;;;2.42;1.42;;;;;;;8.76;42.68;98231.69;4487164;31;20112;-84
2023/03/28 07:36:13;;;;;;;3.62;1.10;;;;;;;8.74;41.21;98218.03;4486338;32;20129;-84
2023/03/28 07:38:40;;;;;;;4.37;1.33;;;;;;;9.08;42.21;98217.75;4487390;31;20804;-83
2023/03/28 07:41:08;;;;;;;4.10;1.48;;;;;;;7.99;43.88;98228.88;4487280;31;20179;-83
2023/03/28 07:43:36;;;;;;;4.37;1.30;;;;;;;8.35;42.43;98233.81;4487446;31;20163;-83
2023/03/28 07:46:07;;;;;;;1.40;0.80;;;;;;;9.26;43.42;98242.88;4473228;32;20391;-84
2023/03/28 07:48:36;;;;;;;3.15;1.12;;;;;;;9.32;40.88;98239.22;4487056;31;20374;-84
2023/03/28 07:51:05;;;;;;;2.42;0.93;;;;;;;8.98;40.21;98241.22;4487408;31;20149;-83
2023/03/28 07:53:33;;;;;;;5.03;1.58;;;;;;;8.28;41.75;98240.84;4487351;31;20110;-83
2023/03/28 07:56:00;;;;;;;3.10;0.85;;;;;;;7.35;42.82;98235.81;4486874;31;20523;-83
2023/03/28 07:58:27;;;;;;;2.45;0.80;;;;;;;7.80;42.76;98228.56;4487094;31;20088;-82
2023/03/28 08:00:55;;;;;;;2.53;0.85;;;;;;;7.79;43.15;98242.28;4487398;31;20495;-82
2023/03/28 08:03:22;;;;;;;3.08;0.85;;;;;;;7.94;43.19;98232.44;4486931;31;20514;-82
2023/03/28 08:05:52;;;;;;;2.35;0.90;;;;;;;7.92;43.43;98252.22;4487113;31;20108;-85
2023/03/28 08:08:20;;;;;;;2.75;1.00;;;;;;;8.08;44.08;98251.75;4486925;32;20080;-83
2023/03/28 08:10:50;;;;;;;2.95;1.20;;;;;;;8.31;41.10;98233.06;4486920;31;20081;-82
2023/03/28 08:13:19;;;;;;;2.53;1.00;;;;;;;8.00;41.71;98238.25;4487177;31;20157;-84
2023/03/28 08:15:56;;;;;;;2.62;1.00;;;;;;;7.33;43.87;98241.84;4486770;31;20607;-84
2023/03/28 08:18:25;;;;;;;4.90;1.00;;;;;;;7.25;43.20;98240.34;4486944;31;20088;-83
2023/03/28 08:20:57;;;;;;;2.65;0.90;;;;;;;6.70;44.92;98265.69;4487387;31;20076;-84
2023/03/28 08:23:25;;;;;;;3.85;0.80;;;;;;;7.06;44.29;98259.66;4485569;32;20100;-84
2023/03/28 08:26:03;;;;;;;3.20;0.93;;;;;;;7.08;44.86;98268.16;4486806;31;20101;-83
2023/03/28 08:28:34;;;;;;;2.47;0.90;;;;;;;6.20;43.77;98252.31;4486972;31;20106;-83
2023/03/28 08:31:12;;;;;;;3.97;1.35;;;;;;;6.09;44.39;98275.59;4486577;31;20144;-83
2023/03/28 08:33:43;;;;;;;0.98;0.65;;;;;;;5.80;43.91;98264.19;4487054;31;20144;-83
2023/03/28 08:36:13;;;;;;;3.12;0.95;;;;;;;6.63;42.22;98249.63;4486898;31;20100;-84
2023/03/28 08:38:41;;;;;;;2.08;0.70;;;;;;;6.24;43.35;98271.84;4486967;32;20104;-83
2023/03/28 08:41:20;;;;;;;6.32;1.10;;;;;;;6.32;43.33;98249.47;4488809;31;20084;-83
2023/03/28 08:44:06;;;;;;;3.53;0.82;;;;;;;7.40;42.40;98272.47;4488532;31;20119;-84
2023/03/28 08:46:34;;;;;;;1.95;0.70;;;;;;;7.01;41.95;98263.22;4489005;31;20097;-84
2023/03/28 08:49:04;;;;;;;2.20;0.60;;;;;;;6.86;42.13;98278.13;4487335;32;20088;-82
2023/03/28 08:51:34;;;;;;;1.33;0.88;;;;;;;6.48;44.48;98281.56;4487192;32;20149;-83
2023/03/28 08:54:10;;;;;;;3.37;0.80;;;;;;;7.45;42.82;98273.19;4487503;32;20100;-82
2023/03/28 08:56:47;;;;;;;2.10;1.00;;;;;;;7.39;41.84;98287.91;4487491;32;20710;-83
2023/03/28 08:59:16;;;;;;;2.97;1.02;;;;;;;8.45;42.03;98278.94;4487092;32;20552;-83
2023/03/28 09:01:43;;;;;;;4.55;0.80;;;;;;;7.94;43.81;98296.69;4487565;32;20080;-83
2023/03/28 09:04:21;;;;;;;3.95;0.98;;;;;;;7.19;43.52;98286.69;4488558;32;20172;-83
2023/03/28 09:06:51;;;;;;;2.40;0.70;;;;;;;6.78;46.23;98294.56;4487862;31;20140;-83
2023/03/28 09:09:40;;;;;;;3.62;1.00;;;;;;;6.08;48.42;98281.59;4488372;31;20079;-81
2023/03/28 09:12:13;;;;;;;0.88;0.65;;;;;;;5.79;48.54;98300.09;4487035;32;20466;-81
2023/03/28 09:14:40;;;;;;;3.20;0.95;;;;;;;5.74;48.35;98301.87;4488185;31;20092;-83
2023/03/28 09:17:15;;;;;;;1.92;0.85;;;;;;;7.39;45.14;98293.87;4488440;31;20424;-83
2023/03/28 09:19:51;;;;;;;3.80;1.00;;;;;;;7.30;44.69;98303.53;4486693;32;20088;-83
2023/03/28 09:22:32;;;;;;;2.08;0.65;;;;;;;6.76;44.84;98307.41;4488514;32;20103;-83
2023/03/28 09:25:18;;;;;;;3.97;0.98;;;;;;;6.43;45.04;98297.94;4488308;32;20130;-82
2023/03/28 09:27:53;;;;;;;6.30;1.67;;;;;;;6.49;44.39;98297.81;4488004;32;20126;-83
2023/03/28 09:30:25;;;;;;;2.45;1.15;;;;;;;7.23;43.19;98266.91;4488352;31;20084;-83
2023/03/28 09:32:57;;;;;;;1.75;1.02;;;;;;;7.25;43.10;98306.25;4486903;32;20102;-84
2023/03/28 09:35:26;;;;;;;3.33;0.85;;;;;;;8.23;41.92;98288.97;4487184;32;20100;-83
2023/03/28 09:38:00;;;;;;;3.83;1.10;;;;;;;7.88;42.25;98291.72;4487024;32;20105;-83
2023/03/28 09:40:29;;;;;;;3.92;0.90;;;;;;;7.64;43.74;98306.06;4487937;31;20080;-82
2023/03/28 09:43:38;;;;;;;2.80;1.08;;;;;;;7.18;43.22;98302.97;4486912;32;20345;-85
2023/03/28 09:46:06;;;;;;;;;;;;;;;6.22;44.57;98278.75;4464911;31;20112;-83
2023/03/28 09:48:37;;;;;;;4.57;1.00;;;;;;;7.02;45.20;98290.56;4486400;32;20322;-83
2023/03/28 09:51:06;;;;;;;3.42;0.98;;;;;;;8.28;42.96;98278.56;4487070;32;20429;-83
2023/03/28 09:53:35;;;;;;;2.15;0.80;;;;;;;7.87;40.03;98254.06;4473891;32;20085;-85
2023/03/28 09:56:07;;;;;;;3.33;0.85;;;;;;;8.61;41.04;98266.44;4487707;31;20434;-84
2023/03/28 09:58:48;;;;;;;3.12;1.15;;;;;;;8.76;40.50;98275.41;4486990;32;20112;-83
2023/03/28 10:01:28;;;;;;;2.47;0.90;;;;;;;9.72;38.05;98265.25;4486690;32;20152;-84
2023/03/28 10:03:56;;;;;;;3.60;1.05;;;;;;;9.19;38.60;98264.56;4488082;31;20103;-84
2023/03/28 10:06:26;;;;;;;2.72;0.85;;;;;;;8.22;38.91;98261.59;4487655;31;20097;-82
2023/03/28 10:09:20;;;;;;;5.72;1.70;;;;;;;7.46;41.27;98287.72;4486436;32;20169;-82
2023/03/28 10:11:59;;;;;;;2.33;1.00;;;;;;;7.14;42.02;98287.72;4486847;32;20096;-82
2023/03/28 10:14:46;;;;;;;1.75;0.85;;;;;;;6.66;44.34;98288.00;4488195;31;20422;-82
2023/03/28 10:17:36;;;;;;;1.77;0.75;;;;;;;7.40;43.78;98284.47;4487286;31;20156;-83
2023/03/28 10:20:15;;;;;;;1.75;0.60;;;;;;;7.87;40.82;98292.59;4478746;32;20108;-83
2023/03/28 10:22:45;;;;;;;10.68;0.98;;;;;;;7.22;42.26;98289.19;4486468;32;20106;-82
2023/03/28 10:25:20;;;;;;;7.90;1.00;;;;;;;6.09;52.98;98345.63;4486576;32;20081;-82
2023/03/28 10:27:49;;;;;;;4.80;1.45;;;;;;;4.26;62.79;98335.81;4486635;32;20131;-81
2023/03/28 10:30:21;;;;;;;1.87;0.90;;;;;;;4.05;65.26;98352.25;4486572;32;20103;-82
2023/03/28 10:33:12;;;;;;;4.03;1.05;;;;;;;4.25;65.12;98346.91;4486715;32;20147;-82
2023/03/28 10:35:43;;;;;;;2.50;0.93;;;;;;;4.84;64.21;98355.44;4487870;31;20087;-83
2023/03/28 10:38:16;;;;;;;2.20;0.95;;;;;;;4.78;65.32;98347.00;4486248;32;20119;-82
2023/03/28 10:40:52;;;;;;;3.15;0.85;;;;;;;6.67;60.26;98335.84;4487785;31;20148;-83
2023/03/28 10:43:19;;;;;;;2.90;1.08;;;;;;;7.23;61.33;98338.78;4486326;32;20614;-82
2023/03/28 10:45:49;;;;;;;;;;;;;;;7.05;56.89;98334.13;4487882;31;20085;-82
2023/03/28 10:48:19;;;;;;;3.42;1.20;;;;;;;7.75;54.89;98322.88;4487880;31;20349;-82
2023/03/28 10:50:48;;;;;;;3.78;1.33;;;;;;;7.76;55.22;98322.00;4486256;32;20165;-83
2023/03/28 10:53:30;;;;;;;4.43;0.90;;;;;;;9.01;55.33;98302.03;4487731;31;20133;-82
2023/03/28 10:56:13;;;;;;;3.55;1.02;;;;;;;7.79;53.20;98321.91;4486505;32;20451;-81
2023/03/28 10:58:46;;;;;;;3.85;1.25;;;;;;;8.90;52.25;98314.41;4487231;31;20092;-81
2023/03/28 11:01:23;;;;;;;3.95;1.00;;;;;;;9.01;52.13;98299.44;4486867;31;20101;-82
2023/03/28 11:04:12;;;;;;;3.58;1.37;;;;;;;7.96;49.68;98272.63;4486565;32;20461;-82
2023/03/28 11:06:42;;;;;;;4.07;2.25;;;;;;;8.96;50.42;98283.34;4487232;32;20506;-81
2023/03/28 11:09:18;;;;;;;2.67;1.12;;;;;;;9.45;46.12;98292.81;4487520;31;20119;-81
2023/03/28 11:11:57;;;;;;;3.35;1.30;;;;;;;8.59;46.72;98320.50;4487250;31;20112;-82
2023/03/28 11:14:50;;;;;;;5.10;1.20;;;;;;;6.36;55.07;98338.22;4487686;31;20103;-82
2023/03/28 11:17:36;;;;;;;3.78;1.10;;;;;;;5.10;59.89;98372.09;4487657;31;20084;-82
2023/03/28 11:20:21;;;;;;;2.92;1.10;;;;;;;4.99;59.47;98369.69;4487187;31;20123;-82
2023/03/28 11:23:06;;;;;;;4.55;1.23;;;;;;;4.35;61.49;98416.59;4486497;32;20108;-80
2023/03/28 11:25:48;;;;;;;2.58;0.90;;;;;;;4.49;71.85;98394.28;4487126;32;20092;-82
2023/03/28 11:28:53;;;;;;;4.18;1.40;;;;;;;3.57;73.77;98407.19;4486262;32;20157;-81
2023/03/28 11:31:27;;;;;;;2.45;1.10;;;;;;;4.29;73.80;98396.25;4486323;32;20512;-81
2023/03/28 11:34:03;;;;;;;2.40;0.62;;;;;;;5.09;65.19;98401.94;4485970;32;20123;-81
2023/03/28 11:36:47;;;;;;;1.65;0.75;;;;;;;5.50;58.63;98401.28;4487491;31;20088;-81
2023/03/28 11:39:20;;;;;;;1.48;0.77;;;;;;;5.51;56.72;98402.97;4487049;31;20107;-82
2023/03/28 11:41:49;;;;;;;2.10;0.90;;;;;;;5.67;56.98;98403.56;4482713;31;145743;-81
2023/03/28 11:44:24;;;;;;;1.50;0.90;;;;;;;6.05;58.53;98390.06;4486322;32;20451;-82
2023/03/28 11:46:56;;;;;;;2.15;0.77;;;;;;;6.25;58.20;98399.94;4486786;31;20146;-80
2023/03/28 11:49:35;;;;;;;1.80;0.90;;;;;;;6.51;57.23;98389.19;4486043;32;20152;-79
2023/03/28 11:52:15;;;;;;;4.37;1.08;;;;;;;6.72;54.97;98390.44;4487117;31;20451;-80
2023/03/28 11:54:51;;;;;;;2.08;0.80;;;;;;;6.83;55.86;98382.50;4485610;32;20466;-80
2023/03/28 11:57:29;;;;;;;2.45;1.10;;;;;;;7.89;52.27;98391.88;4487301;31;20092;-80
2023/03/28 12:00:10;;;;;;;1.60;0.90;;;;;;;8.04;51.34;98378.63;4486107;32;20085;-80
2023/03/28 12:03:23;;;;;;;1.65;0.85;;;;;;;8.52;50.58;98364.47;4487110;31;20093;-80
2023/03/28 12:06:18;;;;;;;4.00;1.02;;;;;;;8.85;46.72;98350.56;4485604;32;20142;-80
2023/03/28 12:09:23;;;;;;;2.67;0.90;;;;;;;8.49;46.38;98352.50;4478231;32;20084;-79